Bradford Regional Airport Bradford US
ICAO: KBFD
IATA: BFD
Category: Medium
Scheduled Services: Yes

Elevation: 2143 ft
TransAlt. 18000 ft.

Airport Communications:
ASOS:133.825
CLEVELAND CNTR:124.325
ALTOONA RDO:122.2
CTAF/UNICOM:123.075

KBFD Zoom In..

If you have problems with the map follow the link
https://www.worldairports.se/pages/airport.php?
ICAO=KBFD

Runways:

(A) RW 05 length 4499 ft width 100 ft
---- / hdg 55

(B) RW 14 length 6306 ft width 150 ft
---- / hdg 145

(C) RW 23 length 4499 ft width 100 ft
---- / hdg 235

(D) RW 32 length 6306 ft width 150 ft
ILS 108.30 / hdg 325

Location; KBFD
Day. 18 / Time. 01.53 Zulu
* Altimeter: 29.72
* Temperature: -04° c. -24.8°f.
* Wind from: 120° Speed 09 kn.
Dewpoint: -06° c.
Visibility: 3 Statute Miles.
Clouds: Broken 1300 ft.
Clouds: Overcast 1900 ft.
Conditions: Light Snow.Conditions: Mist.

KBFD 180153Z AUTO 12009KT 3SM -SN BR BKN013 OVC019 M04/M06 A2972 RMK AO2 UPB38E43SNE28B43 SLP091 P0001 T10391061


Wind From 120°
Speed 09 kn.

 
 
jpsmedia.com for Web Design worldairports.se 2019   terms of use